Time;durP1;ratioP1;P1;durP2;ratioP2;P2;SDS_P1;SDS_P2;PMS_P1;PMS_P2;Temp;Humidity;BMP_temperature;BMP_pressure;BME280_temperature;BME280_humidity;BME280_pressure;Samples;Min_cycle;Max_cycle;Signal;HPM_P1;HPM_P2
2023/12/30 00:00:35;;;;;;;19.73;2.83;;;9.60;99.90;;;;;;5036346;28;20595;-79
2023/12/30 00:03:02;;;;;;;10.27;2.53;;;9.60;99.90;;;;;;5039290;28;20539;-80
2023/12/30 00:05:30;;;;;;;8.90;2.53;;;9.60;99.90;;;;;;5038653;28;20557;-79
2023/12/30 00:07:57;;;;;;;8.50;2.40;;;9.50;99.90;;;;;;5038845;28;20467;-80
2023/12/30 00:10:24;;;;;;;7.00;2.07;;;9.50;99.90;;;;;;5037441;28;20898;-80
2023/12/30 00:12:50;;;;;;;5.90;1.87;;;9.50;99.90;;;;;;5035794;28;20483;-79
2023/12/30 00:15:17;;;;;;;10.87;1.80;;;9.50;99.90;;;;;;5036349;28;20450;-79
2023/12/30 00:17:44;;;;;;;8.57;1.83;;;9.50;99.90;;;;;;5035250;28;20535;-78
2023/12/30 00:20:11;;;;;;;13.63;2.80;;;9.50;99.90;;;;;;5034982;28;20566;-80
2023/12/30 00:22:39;;;;;;;8.83;1.63;;;9.50;99.90;;;;;;5034027;28;20465;-79
2023/12/30 00:25:07;;;;;;;6.70;1.80;;;9.50;99.90;;;;;;5035192;28;20976;-79
2023/12/30 00:27:34;;;;;;;9.40;2.10;;;9.40;99.90;;;;;;5035237;28;20490;-81
2023/12/30 00:30:00;;;;;;;9.33;2.23;;;9.30;99.90;;;;;;5035730;28;20466;-79
2023/12/30 00:32:27;;;;;;;4.23;1.80;;;9.30;99.90;;;;;;5034797;28;20480;-78
2023/12/30 00:34:54;;;;;;;6.80;1.73;;;9.30;99.90;;;;;;5027664;28;20976;-79
2023/12/30 00:37:21;;;;;;;8.53;2.10;;;9.30;99.90;;;;;;5037579;28;20486;-81
2023/12/30 00:39:49;;;;;;;7.43;1.93;;;9.30;99.90;;;;;;5035613;28;20461;-79
2023/12/30 00:42:16;;;;;;;9.17;2.60;;;9.30;99.90;;;;;;5035760;28;20543;-78
2023/12/30 00:44:42;;;;;;;5.30;2.10;;;9.30;99.90;;;;;;5036101;28;20907;-81
2023/12/30 00:47:09;;;;;;;7.47;2.27;;;9.30;99.90;;;;;;5035183;28;20466;-80
2023/12/30 00:49:36;;;;;;;9.40;2.57;;;9.20;99.90;;;;;;5038599;28;20455;-78
2023/12/30 00:52:03;;;;;;;5.27;1.80;;;9.20;99.90;;;;;;5038828;28;20877;-79
2023/12/30 00:54:30;;;;;;;7.00;1.80;;;9.20;99.90;;;;;;5035298;28;20461;-80
2023/12/30 00:56:58;;;;;;;7.67;1.97;;;9.20;99.90;;;;;;5041339;28;20461;-80
2023/12/30 00:59:24;;;;;;;9.57;2.00;;;9.20;99.90;;;;;;5039878;28;20464;-80
2023/12/30 01:01:51;;;;;;;7.90;2.90;;;9.20;99.90;;;;;;5038556;28;21025;-79
2023/12/30 01:04:18;;;;;;;4.90;2.17;;;9.20;99.90;;;;;;5038717;28;20835;-78
2023/12/30 01:06:45;;;;;;;5.00;2.10;;;9.30;99.90;;;;;;5040677;28;20451;-78
2023/12/30 01:09:12;;;;;;;12.80;2.40;;;9.30;99.90;;;;;;5041167;28;20455;-79
2023/12/30 01:11:39;;;;;;;6.03;2.13;;;9.30;99.90;;;;;;5039381;28;20500;-79
2023/12/30 01:14:07;;;;;;;5.50;2.10;;;9.30;99.90;;;;;;5038854;28;20487;-79
2023/12/30 01:16:36;;;;;;;10.13;2.93;;;9.20;99.90;;;;;;5038067;28;20551;-80
2023/12/30 01:19:02;;;;;;;6.30;2.50;;;9.30;99.90;;;;;;5038500;28;20468;-79
2023/12/30 01:21:29;;;;;;;4.50;1.87;;;9.30;99.90;;;;;;5038729;28;20558;-79
2023/12/30 01:23:56;;;;;;;8.50;2.30;;;9.30;99.90;;;;;;5038182;28;20456;-79
2023/12/30 01:26:24;;;;;;;8.13;2.20;;;9.30;99.90;;;;;;5037804;28;20467;-79
2023/12/30 01:28:50;;;;;;;8.53;2.70;;;9.30;99.90;;;;;;5039434;28;20455;-79
2023/12/30 01:31:18;;;;;;;8.13;2.50;;;9.30;99.90;;;;;;5038302;28;20470;-79
2023/12/30 01:33:46;;;;;;;12.03;2.27;;;9.40;99.90;;;;;;5039369;28;20459;-79
2023/12/30 01:36:13;;;;;;;11.17;2.20;;;9.30;99.90;;;;;;5038420;28;20464;-79
2023/12/30 01:38:41;;;;;;;8.60;2.20;;;9.30;99.90;;;;;;5039431;28;20462;-80
2023/12/30 01:41:08;;;;;;;5.30;2.17;;;9.30;99.90;;;;;;5038868;28;20500;-78
2023/12/30 01:43:35;;;;;;;6.80;2.10;;;9.30;99.90;;;;;;5039228;28;20917;-79
2023/12/30 01:46:04;;;;;;;7.13;2.33;;;9.20;99.90;;;;;;5021675;28;20464;-79
2023/12/30 01:48:33;;;;;;;18.20;2.80;;;9.20;99.90;;;;;;5041785;28;20456;-79
2023/12/30 01:51:02;;;;;;;9.90;2.40;;;9.10;99.90;;;;;;5040846;28;20539;-78
2023/12/30 01:53:32;;;;;;;9.00;2.33;;;9.00;99.90;;;;;;5045466;28;20459;-79
2023/12/30 01:56:00;;;;;;;10.43;2.53;;;8.90;99.90;;;;;;5049173;28;20478;-77
2023/12/30 01:58:27;;;;;;;12.50;2.40;;;8.80;99.90;;;;;;5049709;28;20455;-76
2023/12/30 02:00:56;;;;;;;5.50;2.07;;;8.70;99.90;;;;;;5050819;28;20939;-81
2023/12/30 02:03:23;;;;;;;8.20;2.07;;;8.70;99.90;;;;;;5046915;28;20487;-80
2023/12/30 02:05:53;;;;;;;5.57;1.40;;;8.70;99.90;;;;;;5047144;28;20489;-78
2023/12/30 02:08:21;;;;;;;6.20;2.00;;;8.60;99.90;;;;;;5050931;28;20472;-78
2023/12/30 02:10:48;;;;;;;6.43;2.10;;;8.60;99.90;;;;;;5049822;28;20534;-80
2023/12/30 02:13:15;;;;;;;9.13;2.33;;;8.60;99.90;;;;;;5051609;28;20494;-80
2023/12/30 02:15:42;;;;;;;6.50;2.20;;;8.60;99.90;;;;;;5050466;28;20479;-80
2023/12/30 02:18:09;;;;;;;11.90;2.73;;;8.60;99.90;;;;;;5033422;28;20518;-82
2023/12/30 02:20:36;;;;;;;8.87;2.33;;;8.60;99.90;;;;;;5041289;28;20486;-81
2023/12/30 02:23:06;;;;;;;7.90;2.40;;;8.60;99.90;;;;;;5039502;28;20454;-81
2023/12/30 02:25:33;;;;;;;6.23;2.40;;;8.60;99.90;;;;;;5031035;28;20457;-81
2023/12/30 02:28:00;;;;;;;7.40;2.73;;;8.50;99.90;;;;;;5038244;28;20455;-81
2023/12/30 02:30:26;;;;;;;9.80;2.20;;;8.50;99.90;;;;;;5039128;28;21003;-79
2023/12/30 02:32:57;;;;;;;9.53;2.37;;;8.50;99.90;;;;;;5039682;28;20451;-81
2023/12/30 02:35:24;;;;;;;7.20;1.90;;;8.60;99.90;;;;;;5038445;28;20466;-81
2023/12/30 02:37:54;;;;;;;6.60;1.70;;;8.60;99.90;;;;;;5038565;28;20460;-80
2023/12/30 02:40:22;;;;;;;7.30;2.63;;;8.60;99.90;;;;;;5030545;28;20451;-81
2023/12/30 02:42:49;;;;;;;11.87;2.60;;;8.60;99.90;;;;;;5039663;28;21022;-79
2023/12/30 02:45:16;;;;;;;10.77;2.10;;;8.60;99.90;;;;;;5039345;28;20458;-81
2023/12/30 02:47:43;;;;;;;7.50;2.47;;;8.50;99.90;;;;;;5038319;28;20464;-81
2023/12/30 02:50:11;;;;;;;7.20;3.53;;;8.50;99.90;;;;;;5037641;28;20469;-81
2023/12/30 02:52:37;;;;;;;6.83;2.30;;;8.50;99.90;;;;;;5037665;28;20543;-80
2023/12/30 02:55:06;;;;;;;6.40;2.10;;;8.50;99.90;;;;;;5039006;28;20458;-80
2023/12/30 02:57:34;;;;;;;5.83;1.77;;;8.50;99.90;;;;;;5030627;28;20460;-81
2023/12/30 03:00:01;;;;;;;12.07;2.80;;;8.50;99.90;;;;;;5038505;28;20451;-81
2023/12/30 03:02:28;;;;;;;7.87;2.50;;;8.50;99.90;;;;;;5038354;28;20501;-82
2023/12/30 03:04:54;;;;;;;7.77;2.50;;;8.40;99.90;;;;;;5037928;28;20912;-81
2023/12/30 03:07:21;;;;;;;8.27;2.33;;;8.40;99.90;;;;;;5037820;28;20551;-81
2023/12/30 03:09:52;;;;;;;8.40;2.30;;;8.40;99.90;;;;;;5037677;28;20466;-80
2023/12/30 03:12:18;;;;;;;6.60;2.27;;;8.40;99.90;;;;;;5038422;28;20506;-80
2023/12/30 03:14:48;;;;;;;10.10;2.80;;;8.40;99.90;;;;;;5037403;28;21030;-81
2023/12/30 03:17:14;;;;;;;10.20;2.47;;;8.40;99.90;;;;;;5038732;28;20558;-80
2023/12/30 03:19:41;;;;;;;9.10;2.70;;;8.40;99.90;;;;;;5038643;28;20461;-81
2023/12/30 03:22:08;;;;;;;9.47;2.57;;;8.40;99.90;;;;;;5037882;28;20503;-81
2023/12/30 03:24:35;;;;;;;9.43;1.87;;;8.40;99.90;;;;;;5038577;28;20888;-81
2023/12/30 03:27:03;;;;;;;13.63;2.70;;;8.40;99.90;;;;;;5030348;28;20464;-81
2023/12/30 03:29:30;;;;;;;5.50;2.07;;;8.40;99.90;;;;;;5038714;28;20453;-81
2023/12/30 03:31:58;;;;;;;8.63;2.53;;;8.40;99.90;;;;;;5031422;28;20475;-81
2023/12/30 03:34:26;;;;;;;7.83;2.00;;;8.40;99.90;;;;;;5037228;28;20968;-81
2023/12/30 03:36:53;;;;;;;7.20;2.30;;;8.50;99.90;;;;;;5038336;28;20512;-81
2023/12/30 03:39:19;;;;;;;7.87;2.00;;;8.40;99.90;;;;;;5037458;28;20895;-79
2023/12/30 03:41:46;;;;;;;11.53;2.60;;;8.40;99.90;;;;;;5037462;28;20878;-81
2023/12/30 03:44:13;;;;;;;7.43;2.47;;;8.40;99.90;;;;;;5037517;28;20481;-79
2023/12/30 03:46:40;;;;;;;12.90;2.90;;;8.40;99.90;;;;;;5036789;28;20842;-80
2023/12/30 03:49:09;;;;;;;9.67;2.23;;;8.30;99.90;;;;;;5036906;28;20502;-79
2023/12/30 03:51:35;;;;;;;7.57;1.80;;;8.30;99.90;;;;;;5036912;28;20988;-80
2023/12/30 03:54:02;;;;;;;12.23;2.90;;;8.30;99.90;;;;;;5036944;28;20820;-81
2023/12/30 03:56:29;;;;;;;14.00;2.80;;;8.30;99.90;;;;;;5028379;28;20455;-81
2023/12/30 03:58:59;;;;;;;7.27;2.83;;;8.40;99.90;;;;;;5037026;28;20547;-80
2023/12/30 04:01:26;;;;;;;14.97;2.73;;;8.50;99.90;;;;;;5037500;28;20559;-80
2023/12/30 04:03:53;;;;;;;5.40;2.03;;;8.50;99.90;;;;;;5035371;28;20557;-81
2023/12/30 04:06:21;;;;;;;13.43;2.47;;;8.50;99.90;;;;;;5034904;28;20458;-81
2023/12/30 04:08:48;;;;;;;7.50;2.13;;;8.60;99.90;;;;;;5035627;28;20456;-81
2023/12/30 04:11:15;;;;;;;6.20;2.13;;;8.60;99.90;;;;;;5036088;28;20488;-81
2023/12/30 04:13:41;;;;;;;8.53;2.83;;;8.70;99.90;;;;;;5035259;28;20463;-81
2023/12/30 04:16:08;;;;;;;8.83;2.37;;;8.70;99.90;;;;;;5034824;28;20457;-80
2023/12/30 04:18:35;;;;;;;7.77;2.03;;;8.70;99.90;;;;;;5035697;28;20464;-81
2023/12/30 04:21:02;;;;;;;6.97;2.10;;;8.80;99.90;;;;;;5035230;28;20493;-81
2023/12/30 04:23:30;;;;;;;12.13;2.47;;;8.80;99.90;;;;;;5036860;28;20460;-80
2023/12/30 04:25:57;;;;;;;6.63;2.30;;;8.80;99.90;;;;;;5039219;28;20472;-80
2023/12/30 04:28:24;;;;;;;8.83;3.07;;;8.80;99.90;;;;;;5038925;28;20450;-81
2023/12/30 04:30:50;;;;;;;6.53;2.20;;;8.80;99.90;;;;;;5039354;28;20478;-80
2023/12/30 04:33:17;;;;;;;8.50;2.27;;;8.80;99.90;;;;;;5039317;28;20463;-80
2023/12/30 04:35:44;;;;;;;12.10;2.30;;;8.80;99.90;;;;;;5039197;28;20456;-80
2023/12/30 04:38:11;;;;;;;8.37;3.07;;;8.80;99.90;;;;;;5040507;28;20508;-80
2023/12/30 04:40:39;;;;;;;4.13;1.70;;;8.70;99.90;;;;;;5038955;28;20854;-81
2023/12/30 04:43:06;;;;;;;8.07;2.13;;;8.70;99.90;;;;;;5038844;28;20494;-81
2023/12/30 04:45:33;;;;;;;7.67;2.33;;;8.60;99.90;;;;;;5038924;28;20466;-81
2023/12/30 04:47:59;;;;;;;10.60;3.00;;;8.50;99.90;;;;;;5037548;28;20464;-81
2023/12/30 04:50:26;;;;;;;6.50;2.40;;;8.40;99.90;;;;;;5038232;28;20979;-82
2023/12/30 04:52:53;;;;;;;7.00;2.40;;;8.40;99.90;;;;;;5038423;28;20468;-81
2023/12/30 04:55:20;;;;;;;9.20;2.10;;;8.30;99.90;;;;;;5038625;28;20481;-80
2023/12/30 04:57:48;;;;;;;11.70;2.27;;;8.20;99.90;;;;;;5037089;28;20458;-82
2023/12/30 05:00:17;;;;;;;9.47;2.50;;;8.10;99.90;;;;;;5037815;28;20458;-81
2023/12/30 05:02:43;;;;;;;6.80;1.87;;;8.10;99.90;;;;;;5037785;28;20495;-81
2023/12/30 05:05:10;;;;;;;10.20;2.90;;;8.10;99.90;;;;;;5037687;28;20511;-81
2023/12/30 05:07:37;;;;;;;7.23;2.40;;;8.00;99.90;;;;;;5037272;28;20464;-81
2023/12/30 05:10:04;;;;;;;12.20;3.50;;;8.00;99.90;;;;;;5038983;28;20465;-80
2023/12/30 05:12:31;;;;;;;10.27;2.67;;;8.00;99.90;;;;;;5038807;28;21019;-80
2023/12/30 05:14:59;;;;;;;4.13;2.20;;;8.00;99.90;;;;;;5038094;28;20462;-80
2023/12/30 05:17:26;;;;;;;10.37;3.53;;;8.00;99.90;;;;;;5037908;28;20456;-79
2023/12/30 05:19:53;;;;;;;6.13;2.40;;;8.00;99.90;;;;;;5033748;28;20975;-81
2023/12/30 05:22:20;;;;;;;4.70;2.30;;;7.90;99.90;;;;;;5037699;28;20885;-79
2023/12/30 05:24:46;;;;;;;10.93;2.17;;;7.90;99.90;;;;;;5038204;28;20464;-79
2023/12/30 05:27:13;;;;;;;18.10;2.87;;;7.80;99.90;;;;;;5038028;28;20470;-80
2023/12/30 05:29:40;;;;;;;10.47;2.30;;;7.80;99.90;;;;;;5037959;28;20551;-81
2023/12/30 05:32:08;;;;;;;11.83;2.20;;;7.90;99.90;;;;;;5034636;28;20481;-81
2023/12/30 05:34:35;;;;;;;12.10;2.33;;;7.90;99.90;;;;;;5036420;28;20468;-80
2023/12/30 05:37:02;;;;;;;8.90;2.73;;;7.90;99.90;;;;;;5038564;28;20454;-81
2023/12/30 05:39:28;;;;;;;13.30;4.63;;;7.90;99.90;;;;;;5038058;28;20476;-81
2023/12/30 05:41:55;;;;;;;8.50;2.50;;;8.00;99.90;;;;;;5038505;28;20875;-80
2023/12/30 05:44:22;;;;;;;6.77;2.37;;;8.00;99.90;;;;;;5038958;28;20627;-80
2023/12/30 05:46:49;;;;;;;7.23;2.70;;;8.00;99.90;;;;;;5040978;28;20689;-80
2023/12/30 05:49:17;;;;;;;6.70;1.93;;;8.10;99.90;;;;;;5040667;28;20469;-79
2023/12/30 05:51:44;;;;;;;12.73;2.53;;;8.10;99.90;;;;;;5040154;28;20980;-79
2023/12/30 05:54:11;;;;;;;10.40;2.40;;;8.20;99.90;;;;;;5039891;28;20463;-80
2023/12/30 05:56:38;;;;;;;14.17;2.70;;;8.20;99.90;;;;;;5039605;28;20454;-80
2023/12/30 05:59:05;;;;;;;8.90;2.93;;;8.20;99.90;;;;;;5040461;28;20460;-80
2023/12/30 06:01:31;;;;;;;6.50;1.90;;;8.20;99.90;;;;;;5038208;28;20504;-80
2023/12/30 06:03:58;;;;;;;8.30;2.30;;;8.20;99.90;;;;;;5038202;28;20460;-80
2023/12/30 06:06:27;;;;;;;13.37;3.70;;;8.20;99.90;;;;;;5038536;28;20459;-80
2023/12/30 06:08:53;;;;;;;5.67;2.33;;;8.10;99.90;;;;;;5038312;28;20479;-81
2023/12/30 06:11:20;;;;;;;5.83;2.60;;;8.00;99.90;;;;;;5038800;28;20558;-78
2023/12/30 06:13:47;;;;;;;10.83;2.53;;;8.00;99.90;;;;;;5037998;28;20461;-79
2023/12/30 06:16:14;;;;;;;9.90;2.93;;;7.90;99.90;;;;;;5037661;28;20469;-80
2023/12/30 06:18:40;;;;;;;13.07;2.70;;;7.90;99.90;;;;;;5039170;28;20461;-79
2023/12/30 06:21:07;;;;;;;8.50;2.40;;;7.90;99.90;;;;;;5038629;28;20485;-79
2023/12/30 06:23:35;;;;;;;10.10;2.20;;;7.90;99.90;;;;;;5039195;28;20577;-80
2023/12/30 06:26:05;;;;;;;12.27;2.80;;;7.90;99.90;;;;;;5031129;28;20492;-79
2023/12/30 06:28:31;;;;;;;8.57;2.20;;;7.90;99.90;;;;;;5039045;28;20455;-80
2023/12/30 06:30:58;;;;;;;8.80;2.57;;;7.80;99.90;;;;;;5038922;28;20476;-80
2023/12/30 06:33:25;;;;;;;15.03;2.83;;;7.80;99.90;;;;;;5038241;28;20832;-80
2023/12/30 06:35:52;;;;;;;7.50;2.10;;;7.80;99.90;;;;;;5038166;28;20971;-79
2023/12/30 06:38:19;;;;;;;7.83;2.77;;;7.90;99.90;;;;;;5038723;28;20465;-78
2023/12/30 06:40:47;;;;;;;4.70;1.80;;;7.90;99.90;;;;;;5037753;28;20473;-80
2023/12/30 06:43:14;;;;;;;10.07;2.03;;;7.90;99.90;;;;;;5036818;28;20500;-78
2023/12/30 06:45:40;;;;;;;13.00;4.93;;;7.90;99.90;;;;;;5037403;28;20463;-80
2023/12/30 06:48:08;;;;;;;9.93;2.30;;;7.90;99.90;;;;;;5037723;28;20479;-78
2023/12/30 06:50:34;;;;;;;8.37;2.50;;;7.90;99.90;;;;;;5038349;28;20483;-78
2023/12/30 06:53:01;;;;;;;8.07;2.20;;;8.00;99.90;;;;;;5039785;28;20445;-78
2023/12/30 06:55:28;;;;;;;8.67;2.50;;;8.00;99.90;;;;;;5038288;28;20458;-79
2023/12/30 06:57:56;;;;;;;12.00;2.70;;;7.90;99.90;;;;;;5038496;28;20461;-79
2023/12/30 07:00:23;;;;;;;5.60;2.10;;;7.90;99.90;;;;;;5038026;28;20469;-78
2023/12/30 07:02:50;;;;;;;10.20;3.37;;;7.90;99.90;;;;;;5038620;28;20489;-79
2023/12/30 07:05:16;;;;;;;9.83;2.87;;;7.90;99.90;;;;;;5037391;28;20466;-81
2023/12/30 07:07:43;;;;;;;6.67;2.80;;;7.80;99.90;;;;;;5036454;28;20535;-78
2023/12/30 07:10:11;;;;;;;7.43;2.37;;;7.80;99.90;;;;;;5036120;28;20468;-80
2023/12/30 07:12:37;;;;;;;7.93;2.73;;;7.80;99.90;;;;;;5036253;28;20442;-80
2023/12/30 07:15:06;;;;;;;7.37;3.37;;;7.80;99.90;;;;;;5035832;28;20466;-79
2023/12/30 07:17:33;;;;;;;8.03;2.80;;;7.80;99.90;;;;;;5036470;28;20438;-80
2023/12/30 07:20:00;;;;;;;10.37;3.20;;;7.80;99.90;;;;;;5036742;28;21049;-79
2023/12/30 07:22:27;;;;;;;15.30;3.07;;;7.90;99.90;;;;;;5036907;28;20477;-78
2023/12/30 07:24:54;;;;;;;12.50;3.40;;;7.90;99.90;;;;;;5035566;28;20533;-79
2023/12/30 07:27:20;;;;;;;8.30;2.60;;;7.90;99.90;;;;;;5036692;28;20559;-79
2023/12/30 07:29:48;;;;;;;8.73;2.60;;;7.90;99.90;;;;;;5036326;28;20461;-81
2023/12/30 07:32:16;;;;;;;11.80;3.07;;;7.90;99.90;;;;;;5038584;28;20549;-79
2023/12/30 07:34:43;;;;;;;7.57;2.60;;;7.90;99.90;;;;;;5041168;28;20454;-80
2023/12/30 07:37:10;;;;;;;7.30;2.20;;;7.90;99.90;;;;;;5038320;28;20516;-79
2023/12/30 07:39:37;;;;;;;12.23;2.80;;;7.90;99.90;;;;;;5038677;28;20459;-78
2023/12/30 07:42:04;;;;;;;11.67;2.73;;;7.90;99.90;;;;;;5038932;28;20472;-79
2023/12/30 07:44:33;;;;;;;6.20;2.53;;;7.80;99.90;;;;;;5036098;28;20443;-78
2023/12/30 07:47:00;;;;;;;11.73;3.10;;;7.80;99.90;;;;;;5039233;28;20946;-78
2023/12/30 07:49:28;;;;;;;11.33;3.00;;;7.80;99.90;;;;;;5038848;28;20521;-79
2023/12/30 07:51:58;;;;;;;6.60;2.50;;;7.80;99.90;;;;;;5038204;28;20561;-78
2023/12/30 07:54:25;;;;;;;8.40;2.73;;;7.80;99.90;;;;;;5038295;28;20566;-80
2023/12/30 07:56:51;;;;;;;13.30;2.97;;;7.90;99.90;;;;;;5038981;28;20453;-78
2023/12/30 07:59:18;;;;;;;12.13;2.70;;;7.90;99.90;;;;;;5042359;28;20458;-80
2023/12/30 08:01:45;;;;;;;9.03;2.80;;;8.00;99.90;;;;;;5044150;28;20474;-79
2023/12/30 08:04:13;;;;;;;12.33;2.40;;;8.10;99.90;;;;;;5043270;28;20501;-79
2023/12/30 08:06:41;;;;;;;14.77;2.57;;;8.20;99.90;;;;;;5042244;28;20472;-79
2023/12/30 08:09:09;;;;;;;6.57;2.80;;;8.30;99.90;;;;;;5041009;28;20456;-80
2023/12/30 08:11:36;;;;;;;12.10;2.13;;;8.40;99.90;;;;;;5041685;28;20479;-80
2023/12/30 08:14:03;;;;;;;15.77;2.53;;;8.40;99.90;;;;;;5043594;28;20518;-79
2023/12/30 08:16:30;;;;;;;9.73;2.17;;;8.50;99.90;;;;;;5035331;28;20459;-79
2023/12/30 08:18:57;;;;;;;7.47;2.40;;;8.50;99.90;;;;;;5043947;28;20463;-78
2023/12/30 08:21:23;;;;;;;14.33;2.93;;;8.60;99.90;;;;;;5042620;28;20865;-81
2023/12/30 08:23:52;;;;;;;7.53;2.43;;;8.60;99.90;;;;;;5040944;28;20496;-79
2023/12/30 08:26:19;;;;;;;6.93;2.60;;;8.60;99.90;;;;;;5041725;28;20491;-80
2023/12/30 08:28:46;;;;;;;8.63;2.80;;;8.60;99.90;;;;;;5040470;28;20557;-80
2023/12/30 08:31:13;;;;;;;12.20;2.90;;;8.60;99.90;;;;;;5045663;28;20478;-80
2023/12/30 08:33:40;;;;;;;11.67;2.33;;;8.60;99.90;;;;;;5041046;28;20529;-81
2023/12/30 08:36:07;;;;;;;10.13;3.03;;;8.70;99.90;;;;;;5040339;28;20455;-79
2023/12/30 08:38:34;;;;;;;11.53;3.30;;;8.70;99.90;;;;;;5048559;28;20461;-78
2023/12/30 08:41:03;;;;;;;9.43;3.37;;;8.70;99.90;;;;;;5044949;28;20478;-78
2023/12/30 08:43:30;;;;;;;11.77;2.80;;;8.70;99.90;;;;;;5043379;28;20509;-79
2023/12/30 08:45:57;;;;;;;6.97;2.47;;;8.70;99.90;;;;;;5044340;28;20459;-79
2023/12/30 08:48:24;;;;;;;9.10;2.30;;;8.80;99.90;;;;;;5043880;28;20492;-79
2023/12/30 08:50:51;;;;;;;8.97;2.67;;;8.80;99.90;;;;;;5041319;28;20477;-78
2023/12/30 08:53:24;;;;;;;8.67;2.83;;;8.80;99.90;;;;;;5042605;28;20551;-78
2023/12/30 08:55:51;;;;;;;11.80;3.17;;;8.90;99.90;;;;;;5042476;28;20466;-79
2023/12/30 08:58:21;;;;;;;9.17;2.07;;;8.90;99.90;;;;;;5042235;28;20458;-79
2023/12/30 09:00:48;;;;;;;8.33;3.37;;;9.00;99.90;;;;;;5039834;28;20869;-79
2023/12/30 09:03:14;;;;;;;11.40;2.63;;;8.90;99.90;;;;;;5042628;28;20581;-79
2023/12/30 09:05:41;;;;;;;12.93;4.83;;;8.90;99.90;;;;;;5042376;28;20492;-78
2023/12/30 09:08:08;;;;;;;6.90;2.00;;;8.90;99.90;;;;;;5041148;28;20455;-79
2023/12/30 09:10:35;;;;;;;9.00;2.50;;;9.00;99.90;;;;;;5040875;28;21016;-79
2023/12/30 09:13:02;;;;;;;8.03;2.40;;;9.10;99.90;;;;;;5040517;28;20491;-79
2023/12/30 09:15:30;;;;;;;8.90;2.60;;;9.10;99.90;;;;;;5040651;28;20545;-79
2023/12/30 09:17:58;;;;;;;7.97;2.40;;;9.10;99.90;;;;;;5041030;28;20455;-79
2023/12/30 09:20:25;;;;;;;12.07;3.53;;;9.30;99.90;;;;;;5041399;28;20470;-80
2023/12/30 09:22:52;;;;;;;12.40;4.03;;;9.30;99.90;;;;;;5041171;28;20590;-78
2023/12/30 09:25:19;;;;;;;8.67;3.00;;;9.40;99.90;;;;;;5041972;28;20519;-79
2023/12/30 09:27:46;;;;;;;13.93;3.60;;;9.40;99.90;;;;;;5040892;28;20477;-80
2023/12/30 09:30:13;;;;;;;11.43;2.37;;;9.40;99.90;;;;;;5040497;28;20470;-79
2023/12/30 09:32:42;;;;;;;11.27;2.57;;;9.40;99.90;;;;;;5040836;28;20547;-79
2023/12/30 09:35:09;;;;;;;9.17;2.43;;;9.30;99.90;;;;;;5041087;28;20550;-80
2023/12/30 09:37:36;;;;;;;9.60;2.50;;;9.40;99.90;;;;;;5042933;28;20465;-80
2023/12/30 09:40:03;;;;;;;8.47;2.30;;;9.40;99.90;;;;;;5040334;28;20465;-80
2023/12/30 09:42:30;;;;;;;16.00;3.47;;;9.50;99.90;;;;;;5040238;28;20855;-79
2023/12/30 09:44:58;;;;;;;9.40;2.73;;;9.40;99.90;;;;;;5045508;28;20574;-79
2023/12/30 09:47:26;;;;;;;9.20;2.60;;;9.40;99.90;;;;;;5042007;28;20779;-79
2023/12/30 09:49:56;;;;;;;6.33;2.87;;;9.50;99.90;;;;;;5043136;28;20487;-80
2023/12/30 09:52:23;;;;;;;13.20;2.63;;;9.60;99.90;;;;;;5050995;28;20487;-79
2023/12/30 09:54:50;;;;;;;9.53;2.90;;;9.70;99.90;;;;;;5049762;28;20456;-79
2023/12/30 09:57:17;;;;;;;8.20;3.07;;;9.60;99.90;;;;;;5048055;28;20498;-80
2023/12/30 09:59:45;;;;;;;7.70;2.73;;;9.70;99.90;;;;;;5045529;28;20487;-78
2023/12/30 10:02:13;;;;;;;8.63;2.70;;;9.60;99.90;;;;;;5047083;28;20544;-79
2023/12/30 10:04:40;;;;;;;7.70;3.03;;;9.60;99.90;;;;;;5048977;28;20522;-80
2023/12/30 10:07:10;;;;;;;6.87;2.73;;;9.70;99.90;;;;;;5047879;28;20490;-79
2023/12/30 10:09:37;;;;;;;9.63;2.70;;;9.60;99.90;;;;;;5046934;28;20473;-78
2023/12/30 10:12:04;;;;;;;12.67;2.70;;;9.50;99.90;;;;;;5046395;28;20511;-79
2023/12/30 10:14:31;;;;;;;8.33;3.90;;;9.60;99.90;;;;;;5046527;28;20459;-80
2023/12/30 10:16:58;;;;;;;9.07;2.80;;;9.70;99.90;;;;;;5050052;28;20447;-79
2023/12/30 10:19:26;;;;;;;14.13;3.10;;;9.70;99.90;;;;;;5051075;28;20491;-79
2023/12/30 10:21:52;;;;;;;10.33;2.80;;;9.70;99.90;;;;;;5048276;28;20506;-79
2023/12/30 10:24:21;;;;;;;8.60;2.57;;;9.80;99.90;;;;;;5046735;28;20531;-79
2023/12/30 10:26:48;;;;;;;12.33;3.13;;;9.80;99.90;;;;;;5047041;28;20511;-80
2023/12/30 10:29:15;;;;;;;7.30;2.63;;;9.80;99.90;;;;;;5047070;28;20523;-79
2023/12/30 10:31:43;;;;;;;12.80;3.73;;;9.80;99.90;;;;;;5046236;28;20549;-80
2023/12/30 10:34:09;;;;;;;11.40;3.40;;;9.80;99.90;;;;;;5047285;28;20448;-78
2023/12/30 10:36:36;;;;;;;9.50;3.60;;;9.90;99.90;;;;;;5043902;28;20495;-79
2023/12/30 10:39:04;;;;;;;8.90;2.60;;;9.90;99.90;;;;;;5045107;28;20448;-80
2023/12/30 10:41:32;;;;;;;12.17;3.23;;;9.80;99.90;;;;;;5044915;28;20496;-79
2023/12/30 10:43:59;;;;;;;9.73;3.70;;;9.90;99.90;;;;;;5047366;28;20585;-80
2023/12/30 10:46:27;;;;;;;20.13;3.10;;;9.90;99.90;;;;;;5045010;28;20626;-79
2023/12/30 10:48:58;;;;;;;9.27;2.30;;;10.00;99.90;;;;;;5041540;28;20456;-80
2023/12/30 10:51:27;;;;;;;13.57;3.00;;;10.10;99.90;;;;;;5047045;28;20486;-80
2023/12/30 10:54:02;;;;;;;8.80;2.40;;;10.10;99.90;;;;;;5046651;28;20456;-80
2023/12/30 10:56:32;;;;;;;15.43;5.37;;;10.20;99.90;;;;;;5047450;28;20452;-79
2023/12/30 10:59:04;;;;;;;8.30;2.97;;;10.30;99.90;;;;;;5046769;28;20833;-79
2023/12/30 11:01:33;;;;;;;10.43;2.40;;;10.40;99.90;;;;;;5047579;28;20495;-79
2023/12/30 11:04:01;;;;;;;13.20;2.70;;;10.30;99.90;;;;;;5048413;28;20492;-78
2023/12/30 11:06:40;;;;;;;10.33;3.03;;;10.30;99.90;;;;;;5047866;28;20496;-79
2023/12/30 11:09:08;;;;;;;6.93;2.43;;;10.40;99.90;;;;;;5047633;28;20479;-79
2023/12/30 11:11:41;;;;;;;14.60;2.93;;;10.30;99.90;;;;;;5046993;28;20472;-79
2023/12/30 11:14:12;;;;;;;10.30;2.83;;;10.40;99.90;;;;;;5045848;28;21038;-79
2023/12/30 11:16:38;;;;;;;8.10;3.30;;;10.40;99.90;;;;;;5045829;28;20452;-79
2023/12/30 11:19:05;;;;;;;12.00;2.87;;;10.40;99.90;;;;;;5048823;28;20550;-78
2023/12/30 11:21:38;;;;;;;5.30;2.20;;;10.40;99.90;;;;;;5049634;28;20478;-78
2023/12/30 11:24:07;;;;;;;9.43;2.97;;;10.40;99.90;;;;;;5048166;28;20497;-78
2023/12/30 11:26:39;;;;;;;8.77;2.17;;;10.50;99.90;;;;;;5047188;28;20485;-78
2023/12/30 11:29:09;;;;;;;19.83;2.70;;;10.50;99.90;;;;;;5044916;28;20481;-78
2023/12/30 11:31:38;;;;;;;7.73;2.87;;;10.30;99.90;;;;;;5042797;28;20512;-79
2023/12/30 11:34:05;;;;;;;6.03;2.20;;;10.40;99.90;;;;;;5045021;28;20471;-79
2023/12/30 11:36:34;;;;;;;9.80;2.70;;;10.50;99.90;;;;;;5036908;28;20468;-79
2023/12/30 11:39:01;;;;;;;13.20;2.67;;;10.40;99.90;;;;;;5045194;28;21048;-79
2023/12/30 11:41:31;;;;;;;7.97;2.23;;;10.40;99.90;;;;;;5048201;28;20471;-80
2023/12/30 11:44:02;;;;;;;5.30;2.73;;;10.40;99.90;;;;;;5047956;28;20548;-80
2023/12/30 11:46:29;;;;;;;6.00;3.07;;;10.50;99.90;;;;;;5048038;28;20976;-80
2023/12/30 11:48:57;;;;;;;7.20;3.40;;;10.50;99.90;;;;;;5046811;28;20486;-78
2023/12/30 11:51:25;;;;;;;12.27;3.37;;;10.60;99.90;;;;;;5045491;28;20484;-80
2023/12/30 11:53:52;;;;;;;15.63;3.07;;;10.70;99.90;;;;;;5046816;28;20496;-79
2023/12/30 11:56:21;;;;;;;14.97;2.57;;;10.80;99.90;;;;;;5046741;28;20453;-78
2023/12/30 11:58:49;;;;;;;5.03;1.90;;;10.80;99.90;;;;;;5046167;28;20547;-80
2023/12/30 12:01:18;;;;;;;7.50;2.20;;;10.80;99.90;;;;;;5044675;28;20480;-79
2023/12/30 12:03:45;;;;;;;13.03;2.80;;;10.80;99.90;;;;;;5044400;28;20596;-79
2023/12/30 12:06:12;;;;;;;9.77;2.40;;;11.00;99.90;;;;;;5045711;28;20460;-78
2023/12/30 12:08:39;;;;;;;11.37;3.20;;;11.00;99.90;;;;;;5045478;28;20527;-78
2023/12/30 12:11:07;;;;;;;9.87;3.90;;;10.90;99.90;;;;;;5042860;28;20487;-79
2023/12/30 12:13:37;;;;;;;9.93;2.63;;;10.80;99.90;;;;;;5045588;28;20599;-77
2023/12/30 12:16:06;;;;;;;8.27;2.53;;;10.90;99.90;;;;;;5044749;28;20473;-78
2023/12/30 12:18:34;;;;;;;13.50;3.10;;;11.00;99.90;;;;;;5041649;28;20954;-78
2023/12/30 12:21:03;;;;;;;10.40;3.03;;;10.90;99.90;;;;;;5045064;28;20465;-77
2023/12/30 12:23:32;;;;;;;13.40;3.50;;;11.10;99.90;;;;;;5043710;28;20472;-77
2023/12/30 12:26:00;;;;;;;8.87;2.50;;;11.00;99.90;;;;;;5044589;28;20449;-79
2023/12/30 12:28:27;;;;;;;6.03;1.80;;;11.30;99.90;;;;;;5042382;28;20455;-77
2023/12/30 12:30:54;;;;;;;10.90;2.43;;;11.30;99.90;;;;;;5040987;28;20479;-79
2023/12/30 12:33:21;;;;;;;7.93;1.97;;;11.00;99.90;;;;;;5041955;28;20503;-79
2023/12/30 12:35:49;;;;;;;7.70;2.20;;;11.20;99.90;;;;;;5044199;28;20453;-79
2023/12/30 12:38:16;;;;;;;11.90;2.53;;;11.20;99.90;;;;;;5043830;28;21161;-79
2023/12/30 12:40:45;;;;;;;13.20;2.40;;;11.10;99.90;;;;;;5043428;28;20504;-78
2023/12/30 12:43:12;;;;;;;11.47;2.27;;;11.20;99.90;;;;;;5043784;28;20452;-79
2023/12/30 12:45:38;;;;;;;13.83;2.30;;;11.20;99.90;;;;;;5042730;28;20490;-77
2023/12/30 12:48:07;;;;;;;6.70;1.63;;;11.10;99.90;;;;;;5041718;28;20957;-77
2023/12/30 12:50:34;;;;;;;7.13;2.70;;;11.20;99.90;;;;;;5041649;28;20511;-80
2023/12/30 12:53:02;;;;;;;6.67;2.37;;;11.30;99.90;;;;;;5047594;28;20456;-78